Time;durP1;ratioP1;P1;durP2;ratioP2;P2;SDS_P1;SDS_P2;PMS_P1;PMS_P2;Temp;Humidity;BMP_temperature;BMP_pressure;BME280_temperature;BME280_humidity;BME280_pressure;Samples;Min_cycle;Max_cycle;Signal;HPM_P1;HPM_P2
2022/06/22 00:00:33;;;;;;;;;;;24.40;63.00;;;;;;5003039;28;89050;-40
2022/06/22 00:02:58;;;;;;;;;;;24.40;63.10;;;;;;5002364;28;88053;-41
2022/06/22 00:05:33;;;;;;;;;;;24.30;63.10;;;;;;5018443;28;87166;-40
2022/06/22 00:07:59;;;;;;;;;;;24.30;63.10;;;;;;5003295;28;88106;-41
2022/06/22 00:10:51;;;;;;;;;;;24.30;63.10;;;;;;5005731;28;87981;-42
2022/06/22 00:13:19;;;;;;;;;;;24.30;63.20;;;;;;5003366;28;87692;-41
2022/06/22 00:16:05;;;;;;;;;;;24.30;63.10;;;;;;5002609;28;88242;-41
2022/06/22 00:18:37;;;;;;;;;;;24.30;63.20;;;;;;5002342;28;87200;-41
2022/06/22 00:21:05;;;;;;;;;;;24.30;63.20;;;;;;5002463;28;87878;-40
2022/06/22 00:23:34;;;;;;;;;;;24.20;63.20;;;;;;5002497;28;87141;-43
2022/06/22 00:26:18;;;;;;;;;;;24.20;63.20;;;;;;5002743;28;87221;-42
2022/06/22 00:28:56;;;;;;;;;;;24.20;63.30;;;;;;5002782;28;87386;-41
2022/06/22 00:31:30;;;;;;;;;;;24.20;63.20;;;;;;5002558;28;88049;-39
2022/06/22 00:34:10;;;;;;;;;;;24.20;63.30;;;;;;5005611;28;87090;-41
2022/06/22 00:36:39;;;;;;;;;;;24.20;63.30;;;;;;5002621;28;88206;-41
2022/06/22 00:39:23;;;;;;;;;;;24.20;63.20;;;;;;5003169;28;86180;-41
2022/06/22 00:41:51;;;;;;;;;;;24.20;63.20;;;;;;5002809;28;86846;-42
2022/06/22 00:44:18;;;;;;;;;;;24.10;63.30;;;;;;5002091;28;89903;-40
2022/06/22 00:46:55;;;;;;;;;;;24.10;63.30;;;;;;5002013;28;88281;-40
2022/06/22 00:49:22;;;;;;;;;;;24.10;63.30;;;;;;5002227;28;88231;-40
2022/06/22 00:51:47;;;;;;;;;;;24.00;63.20;;;;;;5002178;28;87914;-41
2022/06/22 00:54:16;;;;;;;;;;;24.10;63.30;;;;;;5002208;28;87140;-40
2022/06/22 00:56:41;;;;;;;;;;;24.00;63.20;;;;;;5004916;28;88682;-41
2022/06/22 00:59:10;;;;;;;;;;;24.00;63.20;;;;;;5002482;28;87138;-40
2022/06/22 01:01:42;;;;;;;;;;;24.00;63.20;;;;;;5002777;28;86940;-40
2022/06/22 01:04:21;;;;;;;;;;;24.00;63.20;;;;;;5002488;28;88543;-40
2022/06/22 01:06:50;;;;;;;;;;;24.00;63.30;;;;;;5002272;28;87131;-42
2022/06/22 01:09:34;;;;;;;;;;;24.00;63.30;;;;;;5002321;28;87488;-40
2022/06/22 01:12:18;;;;;;;;;;;23.90;63.20;;;;;;5001284;28;88773;-41
2022/06/22 01:14:57;;;;;;;;;;;23.90;63.30;;;;;;5004309;28;86947;-41
2022/06/22 01:17:28;;;;;;;;;;;23.90;63.30;;;;;;5021265;28;90251;-41
2022/06/22 01:19:57;;;;;;;;;;;23.90;63.20;;;;;;5008203;28;89412;-41
2022/06/22 01:22:22;;;;;;;;;;;23.90;63.20;;;;;;5005259;28;89388;-41
2022/06/22 01:24:48;;;;;;;;;;;23.90;63.30;;;;;;5005720;28;87601;-41
2022/06/22 01:27:29;;;;;;;;;;;23.80;63.20;;;;;;5006172;28;87114;-41
2022/06/22 01:29:56;;;;;;;;;;;23.90;63.20;;;;;;5021944;28;86586;-41
2022/06/22 01:32:29;;;;;;;;;;;23.90;63.20;;;;;;5005317;28;89320;-41
2022/06/22 01:34:57;;;;;;;;;;;23.80;63.10;;;;;;5005529;28;87121;-41
2022/06/22 01:37:27;;;;;;;;;;;23.80;63.20;;;;;;5005341;28;87823;-41
2022/06/22 01:40:11;;;;;;;;;;;23.80;63.20;;;;;;5008283;28;87178;-41
2022/06/22 01:42:49;;;;;;;;;;;23.80;63.20;;;;;;5006325;28;87354;-41
2022/06/22 01:45:33;;;;;;;;;;;23.70;63.20;;;;;;5004834;28;87927;-40
2022/06/22 01:48:05;;;;;;;;;;;23.70;63.20;;;;;;5005434;28;87186;-41
2022/06/22 01:50:37;;;;;;;;;;;23.70;63.30;;;;;;5005070;28;87517;-41
2022/06/22 01:53:02;;;;;;;;;;;23.70;63.20;;;;;;5004683;28;87664;-40
2022/06/22 01:55:28;;;;;;;;;;;23.70;63.20;;;;;;5005527;28;86424;-40
2022/06/22 01:58:01;;;;;;;;;;;23.70;63.30;;;;;;5005230;28;86964;-41
2022/06/22 02:00:27;;;;;;;;;;;23.70;63.20;;;;;;5004570;28;88116;-41
2022/06/22 02:02:56;;;;;;;;;;;23.70;63.30;;;;;;5007489;28;88067;-40
2022/06/22 02:05:27;;;;;;;;;;;23.60;63.20;;;;;;5004813;28;87621;-40
2022/06/22 02:07:53;;;;;;;;;;;23.60;63.20;;;;;;5004901;28;87263;-40
2022/06/22 02:10:25;;;;;;;;;;;23.60;63.20;;;;;;5004982;28;87471;-40
2022/06/22 02:13:11;;;;;;;;;;;23.60;63.20;;;;;;5004400;28;89541;-40
2022/06/22 02:15:40;;;;;;;;;;;23.60;63.30;;;;;;4989823;28;89121;-40
2022/06/22 02:18:10;;;;;;;;;;;23.60;63.20;;;;;;5004612;28;87895;-40
2022/06/22 02:20:37;;;;;;;;;;;23.50;63.10;;;;;;5004791;28;87233;-40
2022/06/22 02:23:05;;;;;;;;;;;23.50;63.10;;;;;;5004581;28;87202;-41
2022/06/22 02:25:33;;;;;;;;;;;23.50;63.10;;;;;;5007074;28;87586;-40
2022/06/22 02:27:59;;;;;;;;;;;23.50;63.20;;;;;;5003943;28;88039;-40
2022/06/22 02:30:24;;;;;;;;;;;23.50;63.10;;;;;;5019949;28;89974;-41
2022/06/22 02:32:50;;;;;;;;;;;23.50;63.10;;;;;;5004325;28;88226;-40
2022/06/22 02:35:16;;;;;;;;;;;23.50;63.10;;;;;;5004356;28;87001;-40
2022/06/22 02:37:45;;;;;;;;;;;23.50;63.00;;;;;;5004385;28;89267;-40
2022/06/22 02:40:14;;;;;;;;;;;23.50;63.10;;;;;;5004069;28;87996;-41
2022/06/22 02:45:23;;;;;;;;;;;23.40;63.10;;;;;;5004963;28;86635;-40
2022/06/22 02:47:53;;;;;;;;;;;23.40;63.00;;;;;;5005565;28;89452;-40
2022/06/22 02:50:25;;;;;;;;;;;23.40;63.20;;;;;;5003895;28;87648;-41
2022/06/22 02:52:52;;;;;;;;;;;23.40;63.00;;;;;;5003118;28;90554;-41
2022/06/22 02:55:21;;;;;;;;;;;23.40;63.00;;;;;;5003899;28;87202;-41
2022/06/22 02:57:48;;;;;;;;;;;23.40;63.10;;;;;;5004199;28;87489;-42
2022/06/22 03:00:19;;;;;;;;;;;23.40;63.00;;;;;;5003971;28;87427;-40
2022/06/22 03:02:44;;;;;;;;;;;23.30;63.10;;;;;;5004190;28;87168;-41
2022/06/22 03:05:11;;;;;;;;;;;23.30;63.10;;;;;;5004264;28;87427;-42
2022/06/22 03:07:41;;;;;;;;;;;23.30;63.80;;;;;;5003713;28;88554;-41
2022/06/22 03:10:07;;;;;;;;;;;23.30;63.10;;;;;;5007423;28;86412;-40
2022/06/22 03:12:33;;;;;;;;;;;23.30;63.20;;;;;;5003879;28;88081;-41
2022/06/22 03:15:01;;;;;;;;;;;23.30;63.10;;;;;;5003995;28;87242;-41
2022/06/22 03:17:30;;;;;;;;;;;23.30;63.10;;;;;;5003275;28;87931;-40
2022/06/22 03:20:00;;;;;;;;;;;23.20;63.10;;;;;;5003437;28;87187;-40
2022/06/22 03:22:29;;;;;;;;;;;23.20;63.10;;;;;;5004004;28;87033;-41
2022/06/22 03:25:15;;;;;;;;;;;23.20;63.10;;;;;;5003922;28;87258;-40
2022/06/22 03:27:42;;;;;;;;;;;23.20;63.10;;;;;;5002676;28;87342;-41
2022/06/22 03:30:13;;;;;;;;;;;23.20;63.20;;;;;;5003729;28;87146;-41
2022/06/22 03:32:46;;;;;;;;;;;23.20;63.20;;;;;;5006329;28;87025;-40
2022/06/22 03:35:33;;;;;;;;;;;23.10;63.20;;;;;;5004292;28;86302;-40
2022/06/22 03:38:09;;;;;;;;;;;23.20;63.10;;;;;;5003489;28;87763;-41
2022/06/22 03:40:38;;;;;;;;;;;23.10;63.10;;;;;;5003280;28;87949;-40
2022/06/22 03:43:10;;;;;;;;;;;23.10;63.10;;;;;;5002812;28;88063;-40
2022/06/22 03:45:39;;;;;;;;;;;23.10;63.00;;;;;;5003478;28;89724;-40
2022/06/22 03:48:05;;;;;;;;;;;23.10;63.10;;;;;;5003049;28;88100;-40
2022/06/22 03:50:51;;;;;;;;;;;23.10;63.00;;;;;;5002727;28;87211;-40
2022/06/22 03:53:21;;;;;;;;;;;23.10;63.10;;;;;;5006317;28;86933;-41
2022/06/22 03:55:49;;;;;;;;;;;23.10;63.10;;;;;;5003633;28;86853;-41
2022/06/22 03:58:15;;;;;;;;;;;23.00;63.10;;;;;;5003446;28;87558;-39
2022/06/22 04:00:42;;;;;;;;;;;23.00;63.10;;;;;;5003164;28;90150;-40
2022/06/22 04:03:08;;;;;;;;;;;23.10;63.10;;;;;;5003258;28;87134;-41
2022/06/22 04:05:54;;;;;;;;;;;23.00;63.10;;;;;;5003015;28;87049;-40
2022/06/22 04:08:33;;;;;;;;;;;23.00;63.10;;;;;;5002417;28;88833;-40
2022/06/22 04:11:05;;;;;;;;;;;23.00;63.20;;;;;;5003371;28;87179;-42
2022/06/22 04:13:40;;;;;;;;;;;23.00;63.10;;;;;;5002874;28;89077;-40
2022/06/22 04:16:12;;;;;;;;;;;23.00;63.20;;;;;;5005913;28;87856;-40
2022/06/22 04:18:48;;;;;;;;;;;23.00;63.20;;;;;;5002925;28;88922;-40
2022/06/22 04:21:19;;;;;;;;;;;23.00;63.30;;;;;;5002288;28;87988;-40
2022/06/22 04:23:46;;;;;;;;;;;23.00;63.20;;;;;;5003267;28;86998;-42
2022/06/22 04:26:21;;;;;;;;;;;22.90;63.10;;;;;;5003435;28;87551;-42
2022/06/22 04:28:48;;;;;;;;;;;23.00;63.10;;;;;;5002433;28;89305;-41
2022/06/22 04:31:26;;;;;;;;;;;22.90;63.10;;;;;;5003039;28;87195;-41
2022/06/22 04:33:58;;;;;;;;;;;22.90;63.20;;;;;;5002141;28;87949;-41
2022/06/22 04:36:26;;;;;;;;;;;22.90;63.20;;;;;;5002308;28;89686;-41
2022/06/22 04:38:55;;;;;;;;;;;22.90;63.10;;;;;;5005611;28;87139;-41
2022/06/22 04:41:27;;;;;;;;;;;22.90;63.10;;;;;;5002522;28;87909;-41
2022/06/22 04:43:53;;;;;;;;;;;22.90;63.20;;;;;;5002984;28;87126;-41
2022/06/22 04:46:25;;;;;;;;;;;22.90;63.30;;;;;;5002773;28;87482;-41
2022/06/22 04:48:52;;;;;;;;;;;22.90;63.20;;;;;;5002090;28;87966;-40
2022/06/22 04:51:23;;;;;;;;;;;22.90;63.20;;;;;;5002920;28;86417;-40
2022/06/22 04:53:54;;;;;;;;;;;22.90;63.20;;;;;;5002594;28;88107;-41
2022/06/22 04:56:32;;;;;;;;;;;22.90;63.20;;;;;;5002463;28;87823;-41
2022/06/22 04:58:58;;;;;;;;;;;22.90;63.20;;;;;;5002018;28;87907;-40
2022/06/22 05:01:27;;;;;;;;;;;22.80;63.20;;;;;;5005102;28;88360;-41
2022/06/22 05:03:55;;;;;;;;;;;22.90;63.30;;;;;;5017463;28;87209;-40
2022/06/22 05:06:22;;;;;;;;;;;22.80;63.20;;;;;;5002595;28;87487;-40
2022/06/22 05:08:53;;;;;;;;;;;22.90;63.30;;;;;;5002066;28;87187;-40
2022/06/22 05:11:23;;;;;;;;;;;22.80;63.30;;;;;;5002387;28;87082;-40
2022/06/22 05:13:50;;;;;;;;;;;22.80;63.40;;;;;;5002225;28;87581;-40
2022/06/22 05:16:18;;;;;;;;;;;22.80;63.40;;;;;;5002472;28;87288;-41
2022/06/22 05:18:44;;;;;;;;;;;22.80;63.40;;;;;;5002172;28;86939;-41
2022/06/22 05:21:10;;;;;;;;;;;22.80;64.00;;;;;;5002243;28;87512;-41
2022/06/22 05:23:36;;;;;;;;;;;22.80;63.40;;;;;;5004285;28;89079;-40
2022/06/22 05:26:03;;;;;;;;;;;22.90;63.50;;;;;;5002241;28;88507;-40
2022/06/22 05:28:39;;;;;;;;;;;22.90;63.60;;;;;;5001712;28;88065;-40
2022/06/22 05:31:07;;;;;;;;;;;22.90;63.50;;;;;;5001949;28;87091;-41
2022/06/22 05:33:34;;;;;;;;;;;22.90;63.50;;;;;;5002151;28;87612;-40
2022/06/22 05:36:07;;;;;;;;;;;22.90;63.50;;;;;;5001698;28;87553;-40
2022/06/22 05:38:34;;;;;;;;;;;22.90;63.50;;;;;;5001717;28;87090;-41
2022/06/22 05:41:04;;;;;;;;;;;22.90;64.20;;;;;;5002543;28;87474;-43
2022/06/22 05:43:30;;;;;;;;;;;22.90;63.60;;;;;;5001328;28;89353;-40
2022/06/22 05:45:57;;;;;;;;;;;22.90;63.60;;;;;;5004961;28;86955;-40
2022/06/22 05:48:26;;;;;;;;;;;22.80;63.60;;;;;;5001031;28;88732;-40
2022/06/22 05:51:01;;;;;;;;;;;22.90;63.70;;;;;;5000964;28;87077;-41
2022/06/22 05:53:33;;;;;;;;;;;22.90;63.60;;;;;;5001811;28;87891;-40
2022/06/22 05:56:04;;;;;;;;;;;22.90;63.60;;;;;;5001381;28;88760;-40
2022/06/22 05:58:50;;;;;;;;;;;22.90;63.60;;;;;;5001619;28;87050;-40
2022/06/22 06:01:39;;;;;;;;;;;22.90;63.70;;;;;;4990025;28;87446;-40
2022/06/22 06:04:25;;;;;;;;;;;22.90;63.60;;;;;;5004881;28;87019;-41
2022/06/22 06:06:52;;;;;;;;;;;22.90;63.70;;;;;;5023598;28;86810;-41
2022/06/22 06:09:23;;;;;;;;;;;22.90;63.70;;;;;;5004448;28;89166;-41
2022/06/22 06:11:50;;;;;;;;;;;22.90;63.70;;;;;;5005019;28;87714;-42
2022/06/22 06:14:26;;;;;;;;;;;22.90;63.70;;;;;;5004408;28;88207;-41
2022/06/22 06:16:53;;;;;;;;;;;22.90;63.70;;;;;;5004430;28;89657;-40
2022/06/22 06:19:22;;;;;;;;;;;22.90;63.80;;;;;;5004575;28;87136;-41
2022/06/22 06:21:49;;;;;;;;;;;22.90;63.90;;;;;;5004975;28;87392;-40
2022/06/22 06:24:18;;;;;;;;;;;22.90;64.00;;;;;;5004397;28;88129;-42
2022/06/22 06:29:47;;;;;;;;;;;22.90;64.00;;;;;;5007500;28;87365;-40
2022/06/22 06:32:15;;;;;;;;;;;23.00;64.10;;;;;;5005199;28;86409;-40
2022/06/22 06:34:46;;;;;;;;;;;22.90;64.00;;;;;;5004759;28;87079;-40
2022/06/22 06:37:17;;;;;;;;;;;22.90;64.10;;;;;;5004166;28;89279;-41
2022/06/22 06:39:44;;;;;;;;;;;22.90;64.10;;;;;;5003899;28;88030;-40
2022/06/22 06:42:33;;;;;;;;;;;22.90;64.20;;;;;;5019458;28;90023;-41
2022/06/22 06:45:00;;;;;;;;;;;23.00;64.20;;;;;;4993431;28;87165;-41
2022/06/22 06:47:30;;;;;;;;;;;23.00;64.20;;;;;;5004411;28;87191;-40
2022/06/22 06:50:16;;;;;;;;;;;23.00;64.30;;;;;;5003778;28;87481;-40
2022/06/22 06:52:46;;;;;;;;;;;23.00;64.20;;;;;;5006745;28;87672;-40
2022/06/22 06:55:14;;;;;;;;;;;23.00;64.40;;;;;;5004180;28;87322;-40
2022/06/22 06:58:06;;;;;;;;;;;23.00;64.40;;;;;;5004196;28;88674;-40
2022/06/22 07:00:32;;;;;;;;;;;23.00;64.40;;;;;;5000069;28;87102;-42
2022/06/22 07:02:58;;;;;;;;;;;23.00;64.40;;;;;;5004494;28;87409;-40
2022/06/22 07:05:24;;;;;;;;;;;23.00;64.50;;;;;;5003236;28;88919;-40
2022/06/22 07:07:56;;;;;;;;;;;23.00;64.50;;;;;;5004117;28;87099;-41
2022/06/22 07:10:25;;;;;;;;;;;23.00;64.40;;;;;;5003902;28;88329;-40
2022/06/22 07:12:58;;;;;;;;;;;23.00;64.30;;;;;;5002772;28;88284;-40
2022/06/22 07:15:26;;;;;;;;;;;23.00;64.40;;;;;;5006983;28;87115;-40
2022/06/22 07:17:53;;;;;;;;;;;23.00;64.50;;;;;;5003465;28;87866;-40
2022/06/22 07:20:23;;;;;;;;;;;23.00;64.50;;;;;;5003960;28;87127;-41
2022/06/22 07:22:51;;;;;;;;;;;23.00;64.40;;;;;;5004261;28;88824;-40
2022/06/22 07:25:17;;;;;;;;;;;23.00;64.50;;;;;;5003447;28;89462;-41
2022/06/22 07:27:57;;;;;;;;;;;23.00;64.40;;;;;;5003735;28;87041;-41
2022/06/22 07:30:28;;;;;;;;;;;23.00;64.50;;;;;;5003045;28;88000;-40
2022/06/22 07:32:57;;;;;;;;;;;23.00;64.30;;;;;;5003534;28;87977;-41
2022/06/22 07:35:36;;;;;;;;;;;23.10;64.50;;;;;;5003907;28;87015;-40
2022/06/22 07:38:19;;;;;;;;;;;23.10;64.40;;;;;;5006167;28;88037;-41
2022/06/22 07:43:31;;;;;;;;;;;23.10;64.40;;;;;;5003838;28;86949;-40
2022/06/22 07:45:56;;;;;;;;;;;23.10;64.40;;;;;;5003113;28;88185;-41
2022/06/22 07:48:23;;;;;;;;;;;23.10;64.50;;;;;;5003717;28;86397;-41
2022/06/22 07:50:52;;;;;;;;;;;23.10;64.60;;;;;;5003416;28;87156;-40
2022/06/22 07:53:49;;;;;;;;;;;23.10;64.70;;;;;;5002979;28;87982;-40
2022/06/22 07:56:21;;;;;;;;;;;23.10;65.10;;;;;;4957696;28;88192;-40
2022/06/22 07:58:54;;;;;;;;;;;23.10;65.80;;;;;;5005692;28;89604;-40
2022/06/22 08:01:23;;;;;;;;;;;23.10;64.90;;;;;;5003146;28;87595;-40
2022/06/22 08:04:00;;;;;;;;;;;23.10;65.10;;;;;;5003102;28;88777;-41
2022/06/22 08:06:49;;;;;;;;;;;23.10;64.70;;;;;;5018438;28;90737;-43
2022/06/22 08:09:20;;;;;;;;;;;23.10;64.60;;;;;;4992258;28;87122;-40
2022/06/22 08:11:58;;;;;;;;;;;23.20;64.70;;;;;;5003107;28;87436;-41
2022/06/22 08:14:30;;;;;;;;;;;23.10;64.70;;;;;;5003128;28;86761;-40
2022/06/22 08:16:57;;;;;;;;;;;23.20;64.80;;;;;;5003140;28;86834;-40
2022/06/22 08:19:27;;;;;;;;;;;23.20;64.70;;;;;;5002794;28;89212;-41
2022/06/22 08:21:53;;;;;;;;;;;23.20;64.60;;;;;;5004761;28;90100;-40
2022/06/22 08:24:20;;;;;;;;;;;23.20;64.60;;;;;;5002459;28;88828;-42
2022/06/22 08:26:46;;;;;;;;;;;23.20;64.70;;;;;;5002415;28;87634;-40
2022/06/22 08:29:14;;;;;;;;;;;23.20;64.90;;;;;;5003109;28;87171;-40
2022/06/22 08:31:49;;;;;;;;;;;23.20;65.40;;;;;;5002997;28;87432;-41
2022/06/22 08:34:18;;;;;;;;;;;23.20;65.30;;;;;;5002378;28;88271;-40
2022/06/22 08:36:50;;;;;;;;;;;23.20;65.10;;;;;;5002861;28;87194;-40
2022/06/22 08:39:16;;;;;;;;;;;23.30;65.40;;;;;;5002790;28;87376;-40
2022/06/22 08:41:44;;;;;;;;;;;23.20;65.70;;;;;;5002475;28;88041;-40
2022/06/22 08:44:28;;;;;;;;;;;23.30;65.90;;;;;;5005616;28;87184;-42
2022/06/22 08:46:59;;;;;;;;;;;23.20;65.70;;;;;;5001743;28;88188;-40
2022/06/22 08:49:43;;;;;;;;;;;23.30;65.90;;;;;;5002127;28;87160;-41
2022/06/22 08:52:14;;;;;;;;;;;23.30;65.70;;;;;;5002967;28;88093;-41
2022/06/22 08:55:14;;;;;;;;;;;23.30;65.70;;;;;;5002286;28;87254;-40
2022/06/22 08:58:03;;;;;;;;;;;23.30;65.40;;;;;;4921567;28;87243;-41
2022/06/22 09:00:34;;;;;;;;;;;23.30;65.20;;;;;;4997862;28;87548;-41
2022/06/22 09:03:04;;;;;;;;;;;23.40;65.70;;;;;;5002333;28;88412;-40
2022/06/22 09:05:42;;;;;;;;;;;23.40;65.10;;;;;;5002583;28;86413;-40
2022/06/22 09:08:25;;;;;;;;;;;23.40;65.10;;;;;;5005301;28;87046;-41
2022/06/22 09:11:10;;;;;;;;;;;23.50;65.10;;;;;;5002553;28;87144;-41
2022/06/22 09:13:46;;;;;;;;;;;23.50;65.50;;;;;;5001793;28;88769;-40
2022/06/22 09:16:14;;;;;;;;;;;23.50;65.60;;;;;;5002201;28;88122;-41
2022/06/22 09:18:49;;;;;;;;;;;23.50;65.70;;;;;;5002566;28;87147;-41
2022/06/22 09:21:31;;;;;;;;;;;23.50;65.50;;;;;;5002325;28;87814;-41
2022/06/22 09:23:56;;;;;;;;;;;23.50;66.10;;;;;;5001651;28;88279;-40
2022/06/22 09:26:24;;;;;;;;;;;23.40;66.20;;;;;;5002259;28;87127;-41
2022/06/22 09:28:56;;;;;;;;;;;23.50;66.20;;;;;;5002328;28;87154;-40
2022/06/22 09:31:37;;;;;;;;;;;23.50;66.10;;;;;;5005018;28;88734;-41
2022/06/22 09:34:06;;;;;;;;;;;23.50;66.20;;;;;;5002267;28;87654;-40
2022/06/22 09:36:49;;;;;;;;;;;23.50;66.30;;;;;;5004371;28;89498;-41
2022/06/22 09:39:33;;;;;;;;;;;23.50;66.20;;;;;;5004894;28;88088;-41
2022/06/22 09:42:20;;;;;;;;;;;23.50;66.20;;;;;;5005406;28;88471;-40
2022/06/22 09:45:04;;;;;;;;;;;23.50;66.10;;;;;;5005248;28;88213;-40
2022/06/22 09:47:30;;;;;;;;;;;23.50;66.20;;;;;;5005309;28;87064;-41
2022/06/22 09:50:05;;;;;;;;;;;23.60;66.30;;;;;;5020097;28;90449;-41
2022/06/22 09:52:45;;;;;;;;;;;23.60;66.20;;;;;;5004879;28;88791;-40
2022/06/22 09:58:23;;;;;;;;;;;23.70;66.20;;;;;;5005684;28;86581;-40
2022/06/22 10:00:51;;;;;;;;;;;23.70;65.90;;;;;;5005092;28;87584;-40
2022/06/22 10:03:24;;;;;;;;;;;23.70;66.00;;;;;;5005017;28;87498;-40
2022/06/22 10:06:02;;;;;;;;;;;23.70;65.90;;;;;;5004219;28;89158;-40
2022/06/22 10:08:36;;;;;;;;;;;23.80;66.00;;;;;;5005027;28;87034;-40
2022/06/22 10:11:15;;;;;;;;;;;23.80;66.20;;;;;;5005100;28;87434;-40
2022/06/22 10:13:50;;;;;;;;;;;23.80;66.20;;;;;;5004793;28;88014;-40
2022/06/22 10:16:22;;;;;;;;;;;23.90;66.20;;;;;;5007992;28;87555;-40
2022/06/22 10:19:14;;;;;;;;;;;23.90;65.90;;;;;;5004400;28;89255;-41
2022/06/22 10:21:39;;;;;;;;;;;23.90;66.10;;;;;;5000636;28;87120;-40
2022/06/22 10:24:17;;;;;;;;;;;23.90;66.20;;;;;;5005494;28;86559;-40
2022/06/22 10:26:49;;;;;;;;;;;23.90;66.00;;;;;;5004806;28;87555;-40
2022/06/22 10:29:33;;;;;;;;;;;24.00;66.00;;;;;;5005050;28;86986;-40
2022/06/22 10:32:14;;;;;;;;;;;24.00;66.20;;;;;;5004075;28;87946;-40
2022/06/22 10:34:45;;;;;;;;;;;24.00;66.10;;;;;;5004484;28;88008;-40
2022/06/22 10:37:30;;;;;;;;;;;24.00;66.00;;;;;;5004653;28;87201;-39
2022/06/22 10:45:08;;;;;;;;;;;24.00;65.90;;;;;;5007359;28;87351;-40
2022/06/22 10:45:54;;;;;;;;;;;24.10;66.00;;;;;;5004600;28;87026;-41
2022/06/22 10:48:19;;;;;;;;;;;24.10;66.00;;;;;;5004183;28;89358;-41
2022/06/22 10:50:47;;;;;;;;;;;24.10;65.90;;;;;;5004753;28;86517;-41
2022/06/22 10:53:16;;;;;;;;;;;24.20;65.80;;;;;;5004497;28;87006;-41
2022/06/22 10:55:41;;;;;;;;;;;24.20;65.90;;;;;;5003856;28;89267;-40
2022/06/22 10:58:07;;;;;;;;;;;24.20;65.70;;;;;;5003980;28;88034;-41
2022/06/22 11:00:38;;;;;;;;;;;24.30;65.80;;;;;;5004248;28;87758;-41
2022/06/22 11:03:10;;;;;;;;;;;24.30;65.70;;;;;;5007038;28;88221;-42
2022/06/22 11:05:46;;;;;;;;;;;24.30;65.60;;;;;;5003941;28;87602;-40
2022/06/22 11:08:14;;;;;;;;;;;24.30;65.50;;;;;;5003669;28;88079;-41
2022/06/22 11:11:09;;;;;;;;;;;24.30;65.50;;;;;;5004181;28;87222;-40
2022/06/22 11:13:48;;;;;;;;;;;24.30;65.30;;;;;;4932348;28;87148;-43
2022/06/22 11:16:32;;;;;;;;;;;24.30;65.40;;;;;;5004165;28;86576;-41
2022/06/22 11:19:07;;;;;;;;;;;24.40;65.50;;;;;;5004008;28;87192;-41
2022/06/22 11:21:51;;;;;;;;;;;24.50;65.40;;;;;;5004070;28;87412;-40
2022/06/22 11:24:35;;;;;;;;;;;24.50;65.50;;;;;;5002602;28;89577;-40
2022/06/22 11:32:49;;;;;;;;;;;24.50;65.60;;;;;;5003583;28;87587;-40
2022/06/22 11:35:33;;;;;;;;;;;24.50;65.70;;;;;;5004095;28;87205;-41
2022/06/22 11:38:17;;;;;;;;;;;24.50;65.60;;;;;;5003659;28;88040;-40
2022/06/22 11:41:01;;;;;;;;;;;24.50;65.70;;;;;;5003657;28;86958;-40
2022/06/22 11:43:48;;;;;;;;;;;24.50;65.80;;;;;;5003429;28;88721;-39
2022/06/22 11:46:30;;;;;;;;;;;24.60;65.90;;;;;;5003468;28;87950;-41
2022/06/22 11:48:56;;;;;;;;;;;24.60;65.90;;;;;;5003419;28;87054;-41
2022/06/22 11:51:37;;;;;;;;;;;24.60;65.90;;;;;;5005123;28;87881;-41
2022/06/22 11:54:06;;;;;;;;;;;24.60;65.90;;;;;;5003665;28;87103;-40
2022/06/22 11:56:40;;;;;;;;;;;24.60;65.80;;;;;;5003186;28;87073;-41
2022/06/22 11:59:17;;;;;;;;;;;24.60;65.70;;;;;;5002416;28;88289;-42
2022/06/22 12:01:51;;;;;;;;;;;24.60;65.70;;;;;;5003424;28;87142;-40
2022/06/22 12:04:16;;;;;;;;;;;24.60;65.60;;;;;;5003303;28;87496;-40
2022/06/22 12:07:01;;;;;;;;;;;24.70;65.70;;;;;;5002858;28;88358;-40
2022/06/22 12:09:39;;;;;;;;;;;24.70;65.50;;;;;;5003867;28;86417;-40
2022/06/22 12:12:20;;;;;;;;;;;24.80;65.40;;;;;;5003532;28;87067;-39
2022/06/22 12:15:08;;;;;;;;;;;24.80;65.40;;;;;;5005632;28;88691;-41
2022/06/22 12:17:34;;;;;;;;;;;24.80;65.40;;;;;;5002728;28;88001;-40
2022/06/22 12:20:16;;;;;;;;;;;24.80;65.50;;;;;;5002800;28;87441;-43
2022/06/22 12:22:45;;;;;;;;;;;24.90;65.30;;;;;;5002917;28;87106;-42
2022/06/22 12:25:19;;;;;;;;;;;24.80;65.30;;;;;;5002780;28;87339;-42
2022/06/22 12:27:52;;;;;;;;;;;24.90;65.30;;;;;;5002696;28;87432;-40
2022/06/22 12:30:33;;;;;;;;;;;24.90;65.40;;;;;;5003308;28;87033;-41
2022/06/22 12:33:15;;;;;;;;;;;24.90;65.30;;;;;;5003031;28;87129;-41
2022/06/22 12:35:44;;;;;;;;;;;24.90;65.30;;;;;;5005897;28;87236;-40
2022/06/22 12:38:27;;;;;;;;;;;24.90;65.30;;;;;;5003066;28;86994;-41
2022/06/22 12:41:04;;;;;;;;;;;25.00;65.20;;;;;;5017456;28;91150;-40
2022/06/22 12:43:40;;;;;;;;;;;25.00;65.20;;;;;;5002154;28;88082;-41
2022/06/22 12:46:17;;;;;;;;;;;25.00;65.10;;;;;;5002289;28;89779;-40
2022/06/22 12:48:43;;;;;;;;;;;25.00;65.20;;;;;;5002297;28;88176;-40
2022/06/22 12:51:32;;;;;;;;;;;25.00;65.10;;;;;;5002726;28;87111;-40
2022/06/22 12:54:01;;;;;;;;;;;25.10;65.20;;;;;;5002448;28;88270;-40
2022/06/22 12:56:29;;;;;;;;;;;25.00;65.10;;;;;;5001813;28;88065;-40
2022/06/22 12:59:21;;;;;;;;;;;25.10;65.10;;;;;;5005740;28;87213;-40
2022/06/22 13:01:47;;;;;;;;;;;25.10;65.10;;;;;;4970951;28;87267;-40
2022/06/22 13:04:38;;;;;;;;;;;25.10;65.10;;;;;;5002701;28;87150;-41
2022/06/22 13:07:10;;;;;;;;;;;25.10;65.10;;;;;;4998408;28;87424;-41
2022/06/22 13:09:36;;;;;;;;;;;25.20;65.10;;;;;;5016872;28;92308;-40
2022/06/22 13:12:10;;;;;;;;;;;25.10;65.00;;;;;;5006115;28;87113;-40
2022/06/22 13:14:40;;;;;;;;;;;25.20;65.00;;;;;;5005831;28;88950;-40
2022/06/22 13:17:27;;;;;;;;;;;25.20;65.00;;;;;;5005621;28;87301;-40
2022/06/22 13:20:20;;;;;;;;;;;25.20;65.00;;;;;;5005722;28;87100;-40
2022/06/22 13:22:50;;;;;;;;;;;25.30;65.10;;;;;;5023842;28;88875;-40
2022/06/22 13:25:24;;;;;;;;;;;25.30;65.10;;;;;;5005645;28;86898;-40
2022/06/22 13:27:58;;;;;;;;;;;25.30;65.00;;;;;;5006148;28;87359;-41
2022/06/22 13:30:34;;;;;;;;;;;25.30;65.00;;;;;;5005486;28;87994;-40
2022/06/22 13:33:13;;;;;;;;;;;25.30;65.60;;;;;;5005649;28;87126;-40
2022/06/22 13:35:43;;;;;;;;;;;25.30;65.10;;;;;;5004929;28;87929;-40
2022/06/22 13:38:18;;;;;;;;;;;25.40;65.10;;;;;;5004941;28;89009;-40
2022/06/22 13:40:54;;;;;;;;;;;25.30;65.00;;;;;;5005570;28;87115;-40
2022/06/22 13:43:35;;;;;;;;;;;25.40;65.00;;;;;;5005758;28;87546;-39
2022/06/22 13:46:13;;;;;;;;;;;25.40;65.00;;;;;;5007944;28;89344;-40
2022/06/22 13:48:40;;;;;;;;;;;25.40;64.90;;;;;;5005111;28;87515;-40
2022/06/22 13:51:20;;;;;;;;;;;25.40;65.00;;;;;;5004405;28;89012;-41
2022/06/22 13:53:47;;;;;;;;;;;25.40;65.00;;;;;;5005947;28;86211;-41
2022/06/22 13:56:18;;;;;;;;;;;25.40;65.00;;;;;;5005109;28;88064;-41
2022/06/22 13:58:47;;;;;;;;;;;25.40;65.10;;;;;;5005059;28;88162;-40
2022/06/22 14:01:13;;;;;;;;;;;25.40;64.90;;;;;;5004216;28;88067;-41
2022/06/22 14:03:43;;;;;;;;;;;25.50;64.90;;;;;;5005430;28;87764;-42
2022/06/22 14:06:21;;;;;;;;;;;25.50;64.80;;;;;;5004759;28;88553;-42
2022/06/22 14:08:51;;;;;;;;;;;25.60;64.80;;;;;;5008135;28;87090;-41
2022/06/22 14:11:27;;;;;;;;;;;25.60;64.80;;;;;;5004487;28;89672;-40
2022/06/22 14:13:53;;;;;;;;;;;25.60;64.80;;;;;;5004650;28;87157;-40
2022/06/22 14:16:46;;;;;;;;;;;25.60;64.80;;;;;;5005048;28;87411;-40
2022/06/22 14:19:18;;;;;;;;;;;25.60;64.70;;;;;;5005206;28;87486;-40
2022/06/22 14:22:03;;;;;;;;;;;25.60;64.70;;;;;;5004382;28;87575;-41
2022/06/22 14:24:31;;;;;;;;;;;25.60;64.70;;;;;;5004697;28;87434;-41
2022/06/22 14:27:12;;;;;;;;;;;25.70;64.70;;;;;;5003995;28;88905;-41
2022/06/22 14:29:40;;;;;;;;;;;25.70;64.70;;;;;;5004995;28;87133;-40
2022/06/22 14:32:09;;;;;;;;;;;25.80;64.70;;;;;;5007230;28;88614;-40
2022/06/22 14:34:49;;;;;;;;;;;25.80;64.60;;;;;;5004560;28;87104;-40
2022/06/22 14:37:14;;;;;;;;;;;25.80;64.70;;;;;;5004606;28;89021;-41
2022/06/22 14:39:43;;;;;;;;;;;25.80;64.60;;;;;;5004336;28;88336;-40
2022/06/22 14:42:11;;;;;;;;;;;25.90;64.80;;;;;;5004495;28;87112;-40
2022/06/22 14:44:47;;;;;;;;;;;25.90;64.50;;;;;;5005127;28;86480;-40
2022/06/22 14:47:18;;;;;;;;;;;25.90;64.60;;;;;;5003589;28;89277;-40
2022/06/22 14:50:00;;;;;;;;;;;25.80;64.80;;;;;;5004430;28;87176;-40
2022/06/22 14:52:44;;;;;;;;;;;25.90;64.60;;;;;;5006255;28;87940;-40
2022/06/22 14:55:10;;;;;;;;;;;26.00;64.60;;;;;;5004616;28;87085;-41
2022/06/22 14:57:47;;;;;;;;;;;26.00;64.40;;;;;;5003981;28;87119;-40
2022/06/22 15:00:18;;;;;;;;;;;26.00;64.30;;;;;;5004054;28;88592;-41
2022/06/22 15:02:55;;;;;;;;;;;25.90;64.50;;;;;;5004540;28;86793;-40
2022/06/22 15:05:27;;;;;;;;;;;25.90;64.50;;;;;;5004510;28;87169;-40
2022/06/22 15:08:09;;;;;;;;;;;25.90;64.60;;;;;;5003854;28;88141;-39
2022/06/22 15:10:42;;;;;;;;;;;25.90;64.80;;;;;;5004754;28;86341;-40